Bookmark and Share
Track history (hours):
 

Eko 2

Last reported at 2014-Apr-25 04:33 UTC. Time now 2014-Apr-25 05:47 UTC.
Position N 37°05' E 025°09'.

Length 89 m; draft 4.3 m.

Type: Ship (hazmat cat A). MMSI: 240827000.

NotesDate/timePositionNaut miles runAvg speedWind from/ knotsBaromVisibWave heightAir tempDewpointWater temp
2014-Apr-25 04:33N 37°05' E 025°09'0 0.3
2014-Apr-25 03:24N 37°05' E 025°09'1 1.6
2014-Apr-25 02:33N 37°06' E 025°07'9 9.4
2014-Apr-25 01:33N 37°11' E 025°17'1010.0
2014-Apr-25 00:33N 37°01' E 025°18'1110.7
2014-Apr-24 23:34N 36°51' E 025°22'1110.6
2014-Apr-24 22:32N 36°40' E 025°25'1010.0
2014-Apr-24 21:33N 36°30' E 025°23'8 7.3
2014-Apr-24 20:30N 36°23' E 025°26'0 0.0
2014-Apr-24 19:31N 36°23' E 025°26'0 0.0
2014-Apr-24 18:30N 36°23' E 025°26'0 0.0
2014-Apr-24 17:33N 36°23' E 025°26'0 0.0
2014-Apr-24 16:34N 36°23' E 025°26'0 0.0
2014-Apr-24 15:33N 36°23' E 025°26'0 0.0
2014-Apr-24 14:33N 36°23' E 025°26'0 0.0
2014-Apr-24 13:33N 36°23' E 025°26'0 0.0
2014-Apr-24 12:31N 36°23' E 025°26'0 0.0
2014-Apr-24 11:10N 36°23' E 025°26'0 0.0
2014-Apr-24 10:33N 36°23' E 025°26'0 0.0
2014-Apr-24 09:33N 36°23' E 025°26'0 0.0
2014-Apr-24 08:30N 36°23' E 025°26'0 0.0
2014-Apr-24 07:33N 36°23' E 025°26'0 0.0
2014-Apr-24 06:32N 36°23' E 025°26'0 0.0
2014-Apr-24 05:33N 36°23' E 025°26'5 4.7
2014-Apr-24 04:33N 36°19' E 025°24'1111.2
2014-Apr-24 03:33N 36°14' E 025°36'1211.8
2014-Apr-24 02:33N 36°08' E 025°49'1111.3
2014-Apr-24 01:33N 36°10' E 026°02'1211.7
2014-Apr-24 00:33N 36°08' E 026°17'1211.8
2014-Apr-23 23:33N 36°05' E 026°31'1211.7
2014-Apr-23 22:33N 36°02' E 026°45'1111.4
2014-Apr-23 21:33N 35°59' E 026°58'1211.6
2014-Apr-23 20:33N 35°56' E 027°12'1410.1
2014-Apr-23 19:09N 35°42' E 027°16'712.0
2014-Apr-23 18:33N 35°35' E 027°15'15 1.0
2014-Apr-23 03:13N 35°44' E 027°31'9 5.7
2014-Apr-23 01:33N 35°54' E 027°31'1211.5
2014-Apr-23 00:32N 35°60' E 027°18'6111.3
2014-Apr-22 19:06N 36°44' E 026°26'811.2
2014-Apr-22 18:24N 36°50' E 026°19'1011.5
2014-Apr-22 17:33N 36°57' E 026°11'1111.2
2014-Apr-22 16:33N 37°04' E 025°60'1111.3
2014-Apr-22 15:33N 37°10' E 025°48'1111.4
2014-Apr-22 14:34N 37°14' E 025°35'1111.3
2014-Apr-22 13:33N 37°18' E 025°22'1010.4
2014-Apr-22 12:33N 37°24' E 025°11'8 8.3
2014-Apr-22 11:33N 37°32' E 025°09'0 0.0
2014-Apr-22 10:28N 37°32' E 025°09'0 0.0
2014-Apr-22 09:31N 37°32' E 025°09'0 0.0
2014-Apr-22 08:31N 37°32' E 025°09'0 0.0
2014-Apr-22 07:31N 37°32' E 025°09'0 0.0
2014-Apr-22 06:31N 37°32' E 025°09'7 7.5
2014-Apr-22 05:33N 37°28' E 025°02'5 4.9
2014-Apr-22 04:33N 37°26' E 024°56'0 0.0
2014-Apr-22 03:33N 37°26' E 024°56'0 0.0
2014-Apr-22 02:33N 37°26' E 024°56'0 0.0
2014-Apr-22 01:33N 37°26' E 024°56'0 0.0
2014-Apr-22 00:33N 37°26' E 024°56'0 0.0
2014-Apr-21 23:33N 37°26' E 024°56'0 0.0
2014-Apr-21 22:33N 37°26' E 024°56'0 0.0
2014-Apr-21 21:33N 37°26' E 024°56'0 0.0
2014-Apr-21 20:33N 37°26' E 024°56'0 0.0
2014-Apr-21 19:33N 37°26' E 024°56'0 0.0
2014-Apr-21 18:34N 37°26' E 024°56'0 0.0
2014-Apr-21 17:33N 37°26' E 024°56'0 0.0
2014-Apr-21 16:33N 37°26' E 024°56'0 0.0
2014-Apr-21 15:33N 37°26' E 024°56'0 0.0
2014-Apr-21 14:33N 37°26' E 024°56'0 0.0
2014-Apr-21 13:33N 37°26' E 024°56'0 0.0
2014-Apr-21 12:33N 37°26' E 024°56'0 0.0
2014-Apr-21 11:34N 37°26' E 024°56'0 0.0
2014-Apr-21 10:33N 37°26' E 024°56'0 0.0
2014-Apr-21 09:33N 37°26' E 024°56'0 0.0
2014-Apr-21 08:33N 37°26' E 024°56'0 0.0
2014-Apr-21 07:33N 37°26' E 024°56'0 0.0
2014-Apr-21 06:34N 37°26' E 024°56'0 0.0
2014-Apr-21 05:33N 37°26' E 024°56'0 0.0
2014-Apr-21 04:31N 37°26' E 024°56'0 0.0
2014-Apr-21 03:28N 37°26' E 024°56'0 0.0
2014-Apr-21 02:33N 37°26' E 024°56'0 0.0
2014-Apr-21 01:30N 37°26' E 024°56'0 0.0
2014-Apr-21 00:33N 37°26' E 024°56'0 0.0
2014-Apr-20 23:30N 37°26' E 024°56'0 0.0
2014-Apr-20 22:33N 37°26' E 024°56'0 0.0
2014-Apr-20 21:33N 37°26' E 024°56'0 0.0
2014-Apr-20 20:33N 37°26' E 024°56'0 0.0
2014-Apr-20 19:33N 37°26' E 024°56'0 0.0
2014-Apr-20 18:31N 37°26' E 024°56'0 0.0
2014-Apr-20 17:33N 37°26' E 024°56'0 0.0
2014-Apr-20 16:33N 37°26' E 024°56'0 0.0
2014-Apr-20 15:33N 37°26' E 024°56'0 0.0
2014-Apr-20 14:33N 37°26' E 024°56'0 0.0
2014-Apr-20 13:31N 37°26' E 024°56'0 0.0
2014-Apr-20 12:34N 37°26' E 024°56'0 0.0
2014-Apr-20 11:27N 37°26' E 024°56'0 0.0
2014-Apr-20 10:33N 37°26' E 024°56'0 0.0
2014-Apr-20 09:33N 37°26' E 024°56'0 0.0
2014-Apr-20 08:33N 37°26' E 024°56'0 0.0
2014-Apr-20 07:33N 37°26' E 024°56'0 0.0
2014-Apr-20 06:33N 37°26' E 024°56'0 0.0
2014-Apr-20 05:33N 37°26' E 024°56'0 0.0
2014-Apr-20 04:33N 37°26' E 024°56'0 0.0
2014-Apr-20 03:33N 37°26' E 024°56'0 0.0
2014-Apr-20 02:33N 37°26' E 024°56'0 0.0
2014-Apr-20 01:33N 37°26' E 024°56'0 0.0
2014-Apr-20 00:33N 37°26' E 024°56'0 0.0
2014-Apr-19 23:33N 37°26' E 024°56'0 0.0
2014-Apr-19 22:33N 37°26' E 024°56'0 0.0
2014-Apr-19 21:33N 37°26' E 024°56'0 0.0
2014-Apr-19 20:33N 37°26' E 024°56'0 0.0
2014-Apr-19 19:33N 37°26' E 024°56'0 0.0
2014-Apr-19 18:34N 37°26' E 024°56'0 0.0
2014-Apr-19 17:33N 37°26' E 024°56'0 0.0
2014-Apr-19 16:33N 37°26' E 024°56'0 0.0
2014-Apr-19 15:30N 37°26' E 024°56'0 0.0
2014-Apr-19 14:33N 37°26' E 024°56'0 0.0
2014-Apr-19 13:33N 37°26' E 024°56'0 0.0
2014-Apr-19 12:33N 37°26' E 024°56'0 0.0
2014-Apr-19 11:33N 37°26' E 024°56'0 0.0
2014-Apr-19 10:33N 37°26' E 024°56'0 0.0
2014-Apr-19 09:33N 37°26' E 024°56'0 0.0
2014-Apr-19 08:30N 37°26' E 024°56'0 0.0
2014-Apr-19 07:33N 37°26' E 024°56'0 0.0
2014-Apr-19 06:33N 37°26' E 024°56'0 0.0
2014-Apr-19 05:33N 37°26' E 024°56'0 0.0
2014-Apr-19 04:33N 37°26' E 024°56'0 0.0
2014-Apr-19 03:33N 37°26' E 024°56'0 0.0
2014-Apr-19 02:33N 37°26' E 024°56'0 0.0
2014-Apr-19 01:33N 37°26' E 024°56'0 0.0
2014-Apr-19 00:33N 37°26' E 024°56'0 0.0
2014-Apr-18 23:33N 37°26' E 024°56'0 0.0
2014-Apr-18 22:33N 37°26' E 024°56'0 0.0
2014-Apr-18 21:28N 37°26' E 024°56'0 0.0
2014-Apr-18 20:33N 37°26' E 024°56'0 0.0
2014-Apr-18 19:33N 37°26' E 024°56'0 0.0
2014-Apr-18 18:33N 37°26' E 024°56'0 0.0
2014-Apr-18 17:33N 37°26' E 024°56'0 0.0
2014-Apr-18 16:33N 37°26' E 024°56'0 0.0
2014-Apr-18 15:34N 37°26' E 024°56'0 0.0
2014-Apr-18 14:30N 37°26' E 024°56'0 0.0
2014-Apr-18 13:33N 37°26' E 024°56'0 0.0
2014-Apr-18 12:34N 37°26' E 024°56'0 0.0
2014-Apr-18 11:33N 37°26' E 024°56'0 0.0
2014-Apr-18 10:33N 37°26' E 024°56'0 0.0
2014-Apr-18 09:30N 37°26' E 024°56'0 0.0
2014-Apr-18 08:30N 37°26' E 024°56'0 0.0
2014-Apr-18 07:34N 37°26' E 024°56'0 0.0
2014-Apr-18 06:33N 37°26' E 024°56'0 0.0
2014-Apr-18 05:33N 37°26' E 024°56'0 0.0
2014-Apr-18 04:33N 37°26' E 024°56'0 0.0
2014-Apr-18 03:33N 37°26' E 024°56'0 0.0
2014-Apr-18 02:33N 37°26' E 024°56'0 0.0
2014-Apr-18 01:30N 37°26' E 024°56'0 0.0
2014-Apr-18 00:30N 37°26' E 024°56'0 0.0
2014-Apr-17 23:31N 37°26' E 024°56'0 0.0
2014-Apr-17 22:33N 37°26' E 024°56'0 0.0
2014-Apr-17 21:30N 37°26' E 024°56'0 0.0
2014-Apr-17 20:33N 37°26' E 024°56'0 0.0
2014-Apr-17 19:33N 37°26' E 024°56'0 0.0
2014-Apr-17 18:33N 37°26' E 024°56'0 0.0
2014-Apr-17 17:33N 37°26' E 024°56'0 0.0
2014-Apr-17 16:33N 37°26' E 024°56'0 0.0
2014-Apr-17 15:33N 37°26' E 024°56'0 0.0
2014-Apr-17 14:33N 37°26' E 024°56'0 0.0
2014-Apr-17 13:21N 37°26' E 024°56'0 0.0
2014-Apr-17 12:33N 37°26' E 024°56'0 0.0
2014-Apr-17 11:33N 37°26' E 024°56'0 0.1
2014-Apr-17 10:33N 37°26' E 024°56'9 9.3
2014-Apr-17 09:33N 37°28' E 025°08'1111.5
2014-Apr-17 08:33N 37°31' E 025°22'3 2.7
2014-Apr-17 07:28N 37°30' E 025°25'0 0.1
2014-Apr-17 06:07N 37°30' E 025°25'0 0.0
2014-Apr-17 05:31N 37°30' E 025°25'0 0.0
2014-Apr-17 04:04N 37°30' E 025°25'0 0.0
2014-Apr-17 03:19N 37°30' E 025°25'0 0.0
2014-Apr-17 02:31N 37°30' E 025°25'0 0.0
2014-Apr-17 01:13N 37°30' E 025°25'0 0.0
2014-Apr-17 00:31N 37°30' E 025°25'0 0.0
2014-Apr-16 23:13N 37°30' E 025°25'0 0.0
2014-Apr-16 22:31N 37°30' E 025°25'0 0.0
2014-Apr-16 21:28N 37°30' E 025°25'0 0.0
2014-Apr-16 20:31N 37°30' E 025°25'0 0.0
2014-Apr-16 19:31N 37°30' E 025°25'0 0.0
2014-Apr-16 18:25N 37°30' E 025°25'0 0.0
2014-Apr-16 16:31N 37°30' E 025°25'0 0.0
2014-Apr-16 15:32N 37°30' E 025°25'0 0.0
2014-Apr-16 14:31N 37°30' E 025°25'0 0.0
2014-Apr-16 13:13N 37°30' E 025°25'0 0.1
2014-Apr-16 12:31N 37°30' E 025°25'0 0.0
2014-Apr-16 11:28N 37°30' E 025°25'0 0.0
2014-Apr-16 10:10N 37°30' E 025°25'0 0.0
2014-Apr-16 09:31N 37°30' E 025°25'0 0.0
2014-Apr-16 08:28N 37°30' E 025°25'0 0.0
2014-Apr-16 07:19N 37°30' E 025°25'0 0.0
2014-Apr-16 06:31N 37°30' E 025°25'0 0.0
2014-Apr-16 05:32N 37°30' E 025°25'0 0.0
2014-Apr-16 04:32N 37°30' E 025°25'0 0.0
2014-Apr-16 03:28N 37°30' E 025°25'0 0.0
2014-Apr-16 02:25N 37°30' E 025°25'0 0.0
2014-Apr-16 01:28N 37°30' E 025°25'0 0.0
2014-Apr-16 00:28N 37°30' E 025°25'0 0.0
2014-Apr-15 23:31N 37°30' E 025°25'0 0.0
2014-Apr-15 22:31N 37°30' E 025°25'0 0.1
2014-Apr-15 21:33N 37°30' E 025°25'3 3.0
2014-Apr-15 20:33N 37°32' E 025°22'1211.6
2014-Apr-15 19:34N 37°34' E 025°36'1411.5
2014-Apr-15 18:18N 37°37' E 025°54'  

Dump ship's entire track history

sailing weather and tide predictions

Eko 2 — SY9957 — position and weather